Lees Lick, Kentucky
Current Conditions -  °F | °C
As of 3:35 PM on Sunday 25 Jan 2015 (Local Time) from KIOB Reporting Station
Overcast Overcast  
Wind Chill: 46°   Ceiling: 7000
Heat Index: 46°   Visibility: 10mi
Dew Point: 36°   Wind: 3mph
Humidity: 66%   Direction: 60°ENE
Pressure: 29.67"   Gusts: NA
Location:  38.4145°N, 84.2859°W
Report Text: KIOB 252035Z AUTO 06003KT 10SM BKN070 BKN090 OVC110 08/02 A2967 RMK AO2
Loading
Personal Weather Stations






























Interactive Weather Map New forecast layout! Learn more

10-Day Weather Forecast

Advertisements
Track Severe Weather on mobile